createdAt,value
2019-01-05T00:00:10.064Z,16.33
2019-01-05T00:03:32.087Z,17.20
2019-01-05T00:07:02.224Z,15.93
2019-01-05T00:10:28.205Z,17.73
2019-01-05T00:14:06.115Z,15.07
2019-01-05T00:17:26.426Z,13.60
2019-01-05T00:20:49.544Z,14.67
2019-01-05T00:24:12.236Z,15.97
2019-01-05T00:27:51.724Z,14.10
2019-01-05T00:31:28.679Z,15.23
2019-01-05T00:35:12.691Z,15.10
2019-01-05T00:38:40.628Z,15.07
2019-01-05T00:42:18.311Z,14.87
2019-01-05T00:45:35.748Z,15.10
2019-01-05T00:48:55.699Z,14.80
2019-01-05T00:52:35.743Z,15.17
2019-01-05T00:56:00.542Z,16.33
2019-01-05T00:59:23.635Z,15.00
2019-01-05T01:02:57.023Z,16.10
2019-01-05T01:06:33.335Z,15.90
2019-01-05T01:09:55.093Z,16.57
2019-01-05T01:13:17.717Z,16.83
2019-01-05T01:16:48.079Z,16.03
2019-01-05T01:20:10.739Z,18.77
2019-01-05T01:23:36.143Z,18.30
2019-01-05T01:26:58.965Z,18.53
2019-01-05T01:30:23.691Z,21.00
2019-01-05T01:33:55.012Z,20.30
2019-01-05T01:37:17.896Z,20.33
2019-01-05T01:40:30.440Z,21.80
2019-01-05T01:43:55.443Z,23.50
2019-01-05T01:47:18.700Z,20.60
2019-01-05T01:50:42.459Z,20.73
2019-01-05T01:54:05.456Z,20.60
2019-01-05T01:57:30.067Z,24.50
2019-01-05T02:00:48.415Z,21.23
2019-01-05T02:04:12.799Z,20.20
2019-01-05T02:07:44.763Z,17.03
2019-01-05T02:11:07.087Z,20.70
2019-01-05T02:14:32.710Z,18.33
2019-01-05T02:18:00.859Z,19.43
2019-01-05T02:21:57.294Z,17.40
2019-01-05T02:25:37.991Z,19.47
2019-01-05T02:29:44.782Z,18.13
2019-01-05T02:33:45.732Z,16.80
2019-01-05T02:37:54.854Z,17.00
2019-01-05T02:42:06.907Z,13.63
2019-01-05T02:46:04.221Z,16.80
2019-01-05T02:50:08.611Z,15.07
2019-01-05T02:54:13.528Z,14.30
2019-01-05T02:58:15.965Z,14.17
2019-01-05T03:02:44.346Z,13.97
2019-01-05T03:06:36.799Z,12.97
2019-01-05T03:10:57.578Z,13.50
2019-01-05T03:14:46.991Z,16.03
2019-01-05T03:18:53.019Z,15.50
2019-01-05T03:23:07.478Z,16.67
2019-01-05T03:27:26.899Z,16.90
2019-01-05T03:31:32.360Z,15.30
2019-01-05T03:35:54.731Z,16.90
2019-01-05T03:40:26.855Z,13.80
2019-01-05T03:44:30.867Z,15.90
2019-01-05T03:48:38.703Z,15.10
2019-01-05T03:52:36.627Z,16.20
2019-01-05T03:56:30.115Z,16.90
2019-01-05T04:01:02.119Z,15.63
2019-01-05T04:05:11.972Z,15.33
2019-01-05T04:09:20.096Z,12.30
2019-01-05T04:13:27.972Z,13.87
2019-01-05T04:17:42.847Z,14.73
2019-01-05T04:21:37.843Z,13.77
2019-01-05T04:25:56.887Z,15.30
2019-01-05T04:29:42.101Z,13.53
2019-01-05T04:33:42.581Z,10.37
2019-01-05T04:37:52.508Z,11.50
2019-01-05T04:42:06.685Z,12.40
2019-01-05T04:46:05.285Z,9.60
2019-01-05T04:50:06.075Z,9.83
2019-01-05T04:54:26.028Z,7.70
2019-01-05T04:58:23.783Z,8.73
2019-01-05T05:02:42.284Z,8.47
2019-01-05T05:06:39.136Z,7.80
2019-01-05T05:11:12.970Z,5.90
2019-01-05T05:15:16.234Z,5.17
2019-01-05T05:19:14.031Z,4.43
2019-01-05T05:23:10.968Z,4.90
2019-01-05T05:27:16.115Z,5.00
2019-01-05T05:31:43.900Z,3.90
2019-01-05T05:35:44.379Z,4.33
2019-01-05T05:39:45.786Z,3.97
2019-01-05T05:43:50.908Z,3.97
2019-01-05T05:48:04.920Z,3.40
2019-01-05T05:52:17.495Z,2.90
2019-01-05T05:56:35.563Z,3.97
2019-01-05T06:00:33.234Z,3.53
2019-01-05T06:05:04.999Z,3.80
2019-01-05T06:09:01.375Z,2.83
2019-01-05T06:13:31.657Z,2.60
2019-01-05T06:17:25.228Z,3.10
2019-01-05T06:21:43.551Z,3.43
2019-01-05T06:25:55.103Z,3.00
2019-01-05T06:29:53.765Z,3.50
2019-01-05T06:34:02.560Z,2.40
2019-01-05T06:38:27.332Z,2.40
2019-01-05T06:42:18.656Z,2.77
2019-01-05T06:46:21.699Z,2.63
2019-01-05T06:50:28.121Z,3.33
2019-01-05T06:54:29.266Z,2.70
2019-01-05T06:58:39.237Z,4.00
2019-01-05T07:03:08.768Z,3.67
2019-01-05T07:07:18.474Z,2.40
2019-01-05T07:11:29.089Z,2.20
2019-01-05T07:15:14.955Z,3.60
2019-01-05T07:19:26.079Z,3.47
2019-01-05T07:23:34.391Z,4.03
2019-01-05T07:27:32.471Z,3.47
2019-01-05T07:31:49.475Z,3.77
2019-01-05T07:36:11.833Z,3.60
2019-01-05T07:40:37.677Z,4.17
2019-01-05T07:44:44.468Z,3.70
2019-01-05T07:48:59.323Z,3.73
2019-01-05T07:52:59.064Z,4.33
2019-01-05T07:57:16.555Z,3.83
2019-01-05T08:01:21.772Z,3.50
2019-01-05T08:05:33.996Z,3.87
2019-01-05T08:09:30.802Z,4.20
2019-01-05T08:13:32.853Z,3.33
2019-01-05T08:17:56.853Z,4.07
2019-01-05T08:21:56.547Z,4.70
2019-01-05T08:26:01.212Z,4.87
2019-01-05T08:30:11.619Z,4.80
2019-01-05T08:34:17.763Z,5.33
2019-01-05T08:38:14.592Z,6.17
2019-01-05T08:42:16.793Z,6.60
2019-01-05T08:46:17.655Z,2.80
2019-01-05T08:50:27.667Z,3.40
2019-01-05T08:54:16.831Z,8.77
2019-01-05T08:58:43.376Z,3.83
2019-01-05T09:03:03.784Z,3.50
2019-01-05T09:07:36.831Z,3.87
2019-01-05T09:11:55.471Z,4.30
2019-01-05T09:16:07.975Z,4.10
2019-01-05T09:20:19.159Z,3.83
2019-01-05T09:24:35.720Z,4.20
2019-01-05T09:28:30.412Z,5.10
2019-01-05T09:32:29.639Z,3.60
2019-01-05T09:36:39.256Z,3.70
2019-01-05T09:40:37.005Z,4.60
2019-01-05T09:44:27.508Z,5.63
2019-01-05T09:48:36.392Z,4.80
2019-01-05T09:52:45.007Z,5.50
2019-01-05T09:57:11.038Z,6.90
2019-01-05T10:01:23.446Z,12.50
2019-01-05T10:05:15.654Z,5.70
2019-01-05T10:09:15.939Z,6.30
2019-01-05T10:13:22.823Z,5.50
2019-01-05T10:17:32.691Z,4.00
2019-01-05T10:21:42.958Z,3.50
2019-01-05T10:26:09.011Z,4.67
2019-01-05T10:30:18.499Z,4.03
2019-01-05T10:34:24.057Z,3.83
2019-01-05T10:38:24.443Z,4.80
2019-01-05T10:42:33.051Z,4.53
2019-01-05T10:46:21.749Z,3.97
2019-01-05T10:50:22.823Z,3.87
2019-01-05T10:54:27.388Z,4.13
2019-01-05T10:58:46.324Z,5.30
2019-01-05T11:02:47.160Z,4.90
2019-01-05T11:06:54.751Z,6.40
2019-01-05T11:11:13.558Z,3.83
2019-01-05T11:15:31.842Z,4.50
2019-01-05T11:19:22.104Z,4.47
2019-01-05T11:23:30.752Z,4.50
2019-01-05T11:27:40.814Z,5.60
2019-01-05T11:31:59.554Z,4.23
2019-01-05T11:36:02.069Z,4.63
2019-01-05T11:40:36.751Z,4.50
2019-01-05T11:44:39.024Z,4.87
2019-01-05T11:48:29.706Z,5.90
2019-01-05T11:52:39.437Z,4.53
2019-01-05T11:57:00.439Z,5.33
2019-01-05T12:01:18.588Z,5.00
2019-01-05T12:05:20.275Z,6.37
2019-01-05T12:09:24.824Z,5.60
2019-01-05T12:13:28.329Z,8.13
2019-01-05T12:17:30.700Z,6.27
2019-01-05T12:21:31.088Z,6.80
2019-01-05T12:25:41.283Z,5.20
2019-01-05T12:29:49.687Z,7.27
2019-01-05T12:33:40.763Z,6.40
2019-01-05T12:38:10.395Z,5.83
2019-01-05T12:42:25.647Z,5.90
2019-01-05T12:46:37.663Z,6.30
2019-01-05T12:50:33.600Z,5.17
2019-01-05T12:54:33.196Z,5.40
2019-01-05T12:58:40.063Z,7.50
2019-01-05T13:02:39.858Z,7.37
2019-01-05T13:06:31.322Z,11.33
2019-01-05T13:10:41.624Z,9.43
2019-01-05T13:14:43.307Z,6.60
2019-01-05T13:18:39.830Z,6.77
2019-01-05T13:22:36.455Z,8.80
2019-01-05T13:26:54.015Z,6.77
2019-01-05T13:30:58.720Z,5.90
2019-01-05T13:35:25.371Z,10.03
2019-01-05T13:40:00.202Z,10.90
2019-01-05T13:44:18.868Z,8.60
2019-01-05T13:48:45.096Z,8.57
2019-01-05T13:53:00.224Z,9.97
2019-01-05T13:56:42.165Z,6.83
2019-01-05T14:00:04.701Z,9.03
2019-01-05T14:03:46.507Z,5.60
2019-01-05T14:07:25.599Z,5.47
2019-01-05T14:11:07.712Z,9.33
2019-01-05T14:14:28.947Z,5.90
2019-01-05T14:17:51.419Z,6.10
2019-01-05T14:21:14.255Z,5.17
2019-01-05T14:24:41.256Z,5.60
2019-01-05T14:28:14.241Z,6.93
2019-01-05T14:31:37.023Z,6.20
2019-01-05T14:34:57.735Z,6.10
2019-01-05T14:38:24.730Z,4.97
2019-01-05T14:41:47.303Z,6.33
2019-01-05T14:45:20.349Z,4.70
2019-01-05T14:48:43.187Z,5.80
2019-01-05T14:52:13.565Z,6.67
2019-01-05T14:55:49.605Z,6.27
2019-01-05T14:59:13.654Z,6.67
2019-01-05T15:02:49.952Z,5.47
2019-01-05T15:06:16.892Z,4.97
2019-01-05T15:09:52.894Z,5.90
2019-01-05T15:13:19.895Z,5.80
2019-01-05T15:16:45.455Z,5.10
2019-01-05T15:20:07.943Z,4.60
2019-01-05T15:23:38.147Z,4.70
2019-01-05T15:27:11.351Z,5.10
2019-01-05T15:30:50.444Z,5.50
2019-01-05T15:34:23.395Z,5.20
2019-01-05T15:37:45.887Z,7.90
2019-01-05T15:41:21.832Z,9.93
2019-01-05T15:44:52.706Z,10.27
2019-01-05T15:48:20.415Z,12.60
2019-01-05T15:51:44.446Z,9.87
2019-01-05T15:55:16.988Z,7.53
2019-01-05T15:58:56.119Z,7.70
2019-01-05T16:02:18.826Z,7.83
2019-01-05T16:05:51.943Z,8.60
2019-01-05T16:09:14.983Z,10.23
2019-01-05T16:12:37.699Z,12.20
2019-01-05T16:16:17.202Z,10.80
2019-01-05T16:19:59.596Z,12.90
2019-01-05T16:23:22.752Z,7.70
2019-01-05T16:26:45.296Z,6.30
2019-01-05T16:30:01.968Z,6.90
2019-01-05T16:33:34.973Z,7.60
2019-01-05T16:37:11.163Z,7.73
2019-01-05T16:40:33.989Z,10.17
2019-01-05T16:43:47.272Z,9.17
2019-01-05T16:47:17.379Z,10.00
2019-01-05T16:50:41.503Z,8.07
2019-01-05T16:54:04.348Z,10.00
2019-01-05T16:57:31.159Z,7.97
2019-01-05T17:00:59.377Z,7.40
2019-01-05T17:04:26.317Z,8.70
2019-01-05T17:08:05.531Z,8.57
2019-01-05T17:11:41.430Z,6.80
2019-01-05T17:15:00.800Z,7.00
2019-01-05T17:18:37.104Z,7.50
2019-01-05T17:21:59.585Z,7.23
2019-01-05T17:25:23.883Z,7.63
2019-01-05T17:29:02.807Z,7.40
2019-01-05T17:32:25.243Z,7.70
2019-01-05T17:35:58.211Z,7.50
2019-01-05T17:39:15.354Z,8.67
2019-01-05T17:42:48.363Z,6.80
2019-01-05T17:46:05.216Z,6.07
2019-01-05T17:49:32.295Z,7.23
2019-01-05T17:53:02.447Z,6.70
2019-01-05T17:56:24.941Z,21.57
2019-01-05T17:59:51.292Z,15.73
2019-01-05T18:03:33.347Z,7.30
2019-01-05T18:07:12.693Z,12.73
2019-01-05T18:10:35.385Z,8.70
2019-01-05T18:13:58.191Z,9.67
2019-01-05T18:17:21.113Z,10.40
2019-01-05T18:20:51.403Z,10.23
2019-01-05T18:24:15.481Z,8.80
2019-01-05T18:27:38.234Z,9.47
2019-01-05T18:31:14.242Z,9.93
2019-01-05T18:34:53.323Z,8.63
2019-01-05T18:38:17.416Z,10.10
2019-01-05T18:41:47.819Z,13.20
2019-01-05T18:45:10.388Z,13.70
2019-01-05T18:48:32.938Z,14.20
2019-01-05T18:52:06.008Z,13.53
2019-01-05T18:55:42.474Z,14.70
2019-01-05T18:59:05.149Z,14.30
2019-01-05T19:02:29.065Z,13.50
2019-01-05T19:05:56.011Z,13.53
2019-01-05T19:09:18.728Z,12.10
2019-01-05T19:12:38.277Z,11.17
2019-01-05T19:16:02.527Z,11.70
2019-01-05T19:19:25.028Z,11.60
2019-01-05T19:23:01.074Z,11.23
2019-01-05T19:26:23.319Z,11.70
2019-01-05T19:29:46.578Z,10.83
2019-01-05T19:33:06.404Z,10.87
2019-01-05T19:36:32.995Z,10.00
2019-01-05T19:39:57.615Z,8.40
2019-01-05T19:43:20.078Z,12.23
2019-01-05T19:46:42.595Z,9.80
2019-01-05T19:50:05.212Z,13.83
2019-01-05T19:53:30.519Z,11.53
2019-01-05T19:57:09.757Z,9.33
2019-01-05T20:00:36.801Z,9.03
2019-01-05T20:03:59.746Z,9.07
2019-01-05T20:07:22.551Z,8.93
2019-01-05T20:10:55.829Z,9.60
2019-01-05T20:14:25.408Z,10.87
2019-01-05T20:17:47.820Z,11.00
2019-01-05T20:21:18.267Z,12.77
2019-01-05T20:24:37.220Z,12.23
2019-01-05T20:28:01.255Z,13.00
2019-01-05T20:31:24.448Z,11.20
2019-01-05T20:34:48.626Z,13.00
2019-01-05T20:38:24.960Z,11.70
2019-01-05T20:42:01.343Z,11.90
2019-01-05T20:45:31.836Z,10.33
2019-01-05T20:48:50.590Z,10.37
2019-01-05T20:52:13.193Z,11.20
2019-01-05T20:55:36.172Z,10.37
2019-01-05T20:58:58.752Z,11.00
2019-01-05T21:02:21.442Z,9.27
2019-01-05T21:05:53.750Z,9.70
2019-01-05T21:09:29.981Z,10.10
2019-01-05T21:12:54.154Z,9.60
2019-01-05T21:16:24.575Z,9.90
2019-01-05T21:20:00.258Z,10.30
2019-01-05T21:23:23.219Z,9.90
2019-01-05T21:26:53.091Z,10.43
2019-01-05T21:30:12.387Z,9.50
2019-01-05T21:33:35.123Z,9.20
2019-01-05T21:36:58.311Z,9.70
2019-01-05T21:40:22.491Z,10.03
2019-01-05T21:43:45.919Z,8.70
2019-01-05T21:47:08.713Z,9.80
2019-01-05T21:50:31.342Z,8.90
2019-01-05T21:54:13.369Z,9.13
2019-01-05T21:57:36.026Z,8.20
2019-01-05T22:01:12.248Z,7.50
2019-01-05T22:04:49.727Z,8.67
2019-01-05T22:08:13.905Z,8.90
2019-01-05T22:11:31.645Z,10.03
2019-01-05T22:15:08.427Z,9.70
2019-01-05T22:18:38.628Z,8.53
2019-01-05T22:21:58.903Z,8.20
2019-01-05T22:25:40.947Z,8.83
2019-01-05T22:29:03.804Z,9.80
2019-01-05T22:32:42.903Z,10.63
2019-01-05T22:36:05.442Z,9.47
2019-01-05T22:39:27.898Z,7.50
2019-01-05T22:42:54.907Z,8.27
2019-01-05T22:46:19.270Z,6.40
2019-01-05T22:49:48.013Z,8.47
2019-01-05T22:53:12.136Z,7.93
2019-01-05T22:56:51.423Z,7.87
2019-01-05T23:00:30.366Z,8.20
2019-01-05T23:04:12.785Z,7.60
2019-01-05T23:07:35.319Z,7.07
2019-01-05T23:10:58.246Z,7.13
2019-01-05T23:14:26.411Z,7.17
2019-01-05T23:17:50.514Z,7.37
2019-01-05T23:21:13.331Z,8.10
2019-01-05T23:24:46.179Z,7.57
2019-01-05T23:28:09.171Z,7.67
2019-01-05T23:31:42.363Z,7.23
2019-01-05T23:35:06.570Z,7.10
2019-01-05T23:38:29.019Z,7.10
2019-01-05T23:42:01.879Z,6.80
2019-01-05T23:45:32.144Z,9.00
2019-01-05T23:48:49.998Z,7.93
2019-01-05T23:52:11.467Z,10.70
2019-01-05T23:55:34.366Z,6.90
2019-01-05T23:59:10.683Z,8.67
